Time;durP1;ratioP1;P1;durP2;ratioP2;P2;SDS_P1;SDS_P2;PMS_P1;PMS_P2;Temp;Humidity;BMP_temperature;BMP_pressure;BME280_temperature;BME280_humidity;BME280_pressure;Samples;Min_cycle;Max_cycle;Signal;HPM_P1;HPM_P2
2023/10/10 00:01:39;;;;;;;10.10;3.90;;;;;;;17.22;69.12;155785.47;5078241;28;20449;-80
2023/10/10 00:04:06;;;;;;;9.80;4.50;;;;;;;17.19;69.41;155778.97;5083375;28;20815;-80
2023/10/10 00:06:38;;;;;;;8.00;3.67;;;;;;;17.15;69.13;155767.28;5075124;28;20453;-80
2023/10/10 00:09:06;;;;;;;7.10;3.80;;;;;;;17.12;69.98;155760.78;5067417;28;20457;-80
2023/10/10 00:11:35;;;;;;;8.00;4.37;;;;;;;17.05;70.14;155743.81;5100740;28;20939;-80
2023/10/10 00:14:05;;;;;;;6.83;3.37;;;;;;;16.97;70.61;155723.00;5099859;28;20540;-80
2023/10/10 00:16:36;;;;;;;9.07;3.70;;;;;;;16.93;71.07;155711.31;5074855;28;20442;-80
2023/10/10 00:19:11;;;;;;;10.33;4.33;;;;;;;16.93;71.73;155711.31;5091421;28;20493;-81
2023/10/10 00:21:40;;;;;;;8.20;3.90;;;;;;;16.91;71.54;155707.44;5093714;28;20482;-81
2023/10/10 00:24:11;;;;;;;11.47;3.93;;;;;;;16.89;72.16;155702.19;5064619;28;20874;-80
2023/10/10 00:26:38;;;;;;;10.10;3.70;;;;;;;16.89;71.99;155702.19;5056425;28;20829;-80
2023/10/10 00:29:08;;;;;;;9.20;4.33;;;;;;;16.87;71.96;155695.69;5097358;28;20472;-80
2023/10/10 00:31:55;;;;;;;10.67;4.40;;;;;;;16.78;71.30;155673.59;5091595;28;20440;-80
2023/10/10 00:34:28;;;;;;;9.27;4.53;;;;;;;16.74;71.43;155661.88;5085585;28;20468;-80
2023/10/10 00:37:02;;;;;;;8.47;4.60;;;;;;;16.73;72.06;155659.28;5053776;28;20986;-80
2023/10/10 00:39:35;;;;;;;9.67;3.43;;;;;;;16.70;71.80;155651.47;5066463;28;20513;-80
2023/10/10 00:42:05;;;;;;;8.00;4.70;;;;;;;16.71;71.17;155654.03;5069101;28;20433;-80
2023/10/10 00:44:37;;;;;;;7.40;3.57;;;;;;;16.70;70.77;155652.78;5040058;28;20953;-80
2023/10/10 00:47:04;;;;;;;10.80;3.70;;;;;;;16.69;69.85;155650.16;5082122;28;20438;-80
2023/10/10 00:49:34;;;;;;;9.67;3.57;;;;;;;16.66;69.44;155642.34;5084630;28;20445;-80
2023/10/10 00:52:06;;;;;;;10.03;4.60;;;;;;;16.65;69.63;155638.47;5052468;28;20568;-80
2023/10/10 00:54:40;;;;;;;8.87;4.50;;;;;;;16.63;69.69;155633.22;5054405;28;20969;-80
2023/10/10 00:57:08;;;;;;;6.60;3.30;;;;;;;16.61;70.21;155628.03;5075998;28;20458;-80
2023/10/10 00:59:36;;;;;;;9.80;4.03;;;;;;;16.60;70.24;155626.72;5077231;28;20493;-80
2023/10/10 01:02:04;;;;;;;8.50;4.40;;;;;;;16.61;70.71;155629.34;5069187;28;20880;-80
2023/10/10 01:04:39;;;;;;;8.37;3.40;;;;;;;16.59;70.86;155624.16;5059956;28;20492;-80
2023/10/10 01:07:08;;;;;;;7.97;3.67;;;;;;;16.56;71.23;155615.03;5071433;28;20438;-80
2023/10/10 01:09:39;;;;;;;9.70;4.50;;;;;;;16.54;71.50;155611.16;5056905;28;20441;-80
2023/10/10 01:12:07;;;;;;;6.80;3.07;;;;;;;16.51;72.25;155601.97;5081793;28;20437;-80
2023/10/10 01:14:34;;;;;;;7.53;3.60;;;;;;;16.46;72.21;155590.28;5078312;28;20462;-80
2023/10/10 01:17:05;;;;;;;11.13;4.00;;;;;;;16.43;72.91;155582.47;5067241;28;20842;-80
2023/10/10 01:19:35;;;;;;;9.37;3.30;;;;;;;16.38;73.40;155569.47;5057472;28;20466;-80
2023/10/10 01:22:09;;;;;;;8.13;4.27;;;;;;;16.36;73.33;155564.28;5069045;28;20775;-80
2023/10/10 01:24:40;;;;;;;12.70;3.70;;;;;;;16.30;73.63;155549.97;5067871;28;20437;-80
2023/10/10 01:27:16;;;;;;;6.90;3.40;;;;;;;16.24;74.23;155534.34;5060874;28;20443;-80
2023/10/10 01:29:50;;;;;;;10.40;3.60;;;;;;;16.21;74.53;155525.25;5043187;28;20487;-80
2023/10/10 01:32:18;;;;;;;12.90;4.03;;;;;;;16.20;74.62;155522.66;5070261;28;20426;-80
2023/10/10 01:34:44;;;;;;;7.77;4.10;;;;;;;16.17;74.61;155514.88;5068338;28;20445;-80
2023/10/10 01:37:20;;;;;;;5.17;3.30;;;;;;;16.14;75.49;155507.06;5066852;28;20896;-80
2023/10/10 01:40:00;;;;;;;6.20;3.60;;;;;;;16.13;75.76;155505.75;5067093;28;20473;-80
2023/10/10 01:42:31;;;;;;;7.93;3.83;;;;;;;16.11;75.72;155500.56;5069201;28;20828;-80
2023/10/10 01:45:02;;;;;;;7.30;3.77;;;;;;;16.11;75.92;155499.25;5056236;28;20451;-80
2023/10/10 01:47:34;;;;;;;7.90;4.80;;;;;;;16.11;75.38;155500.56;5047740;28;20503;-80
2023/10/10 01:50:02;;;;;;;7.40;4.10;;;;;;;16.11;75.59;155499.25;5077705;28;20983;-80
2023/10/10 01:52:30;;;;;;;7.30;3.63;;;;;;;16.09;76.11;155494.06;5083820;28;20438;-80
2023/10/10 01:54:57;;;;;;;9.83;3.70;;;;;;;16.03;76.15;155479.75;5059367;28;20454;-81
2023/10/10 01:57:26;;;;;;;8.90;4.17;;;;;;;16.00;76.72;155471.94;5060553;28;20444;-80
2023/10/10 01:59:57;;;;;;;12.90;4.30;;;;;;;16.00;76.72;155470.63;5071389;28;20804;-80
2023/10/10 02:02:26;;;;;;;8.17;3.73;;;;;;;15.98;77.06;155465.44;5031959;28;20489;-80
2023/10/10 02:04:56;;;;;;;7.00;3.63;;;;;;;15.95;77.21;155458.94;5064558;28;20483;-80
2023/10/10 02:07:23;;;;;;;10.13;4.70;;;;;;;15.93;77.52;155453.75;5054716;28;20478;-80
2023/10/10 02:10:00;;;;;;;8.63;3.90;;;;;;;15.88;77.76;155439.44;5058338;28;20455;-80
2023/10/10 02:12:27;;;;;;;8.90;3.90;;;;;;;15.85;78.24;155432.94;5064136;28;20858;-80
2023/10/10 02:14:54;;;;;;;8.53;3.57;;;;;;;15.84;78.12;155430.31;5050439;28;20978;-80
2023/10/10 02:17:23;;;;;;;9.80;3.83;;;;;;;15.81;78.29;155423.81;5059792;28;20430;-80
2023/10/10 02:20:17;;;;;;;12.50;4.33;;;;;;;15.81;78.41;155422.53;5063289;28;20520;-80
2023/10/10 02:22:48;;;;;;;8.23;3.53;;;;;;;15.79;78.64;155417.34;5062516;28;20528;-80
2023/10/10 02:28:03;;;;;;;9.60;4.10;;;;;;;15.78;78.81;155416.03;5042161;28;20455;-80
2023/10/10 02:30:35;;;;;;;8.37;3.60;;;;;;;15.74;78.79;155405.66;5047169;28;20439;-80
2023/10/10 02:33:12;;;;;;;15.03;5.20;;;;;;;15.68;79.02;155390.03;5065201;28;20503;-80
2023/10/10 02:35:54;;;;;;;11.80;4.60;;;;;;;15.62;79.01;155374.41;5055093;28;20462;-80
2023/10/10 02:38:22;;;;;;;8.90;4.00;;;;;;;15.55;79.95;155356.25;5074862;28;20442;-80
2023/10/10 02:40:55;;;;;;;5.80;3.80;;;;;;;15.50;80.06;155343.25;5045565;28;20482;-80
2023/10/10 02:43:33;;;;;;;12.23;4.23;;;;;;;15.46;80.66;155332.81;5062147;28;20449;-80
2023/10/10 02:46:00;;;;;;;8.73;3.70;;;;;;;15.41;80.83;155318.53;5068464;28;20448;-80
2023/10/10 02:48:34;;;;;;;7.00;3.77;;;;;;;15.37;81.05;155309.41;5044930;28;20452;-80
2023/10/10 02:51:03;;;;;;;9.30;3.87;;;;;;;15.32;81.57;155296.41;5033619;28;20439;-80
2023/10/10 02:53:32;;;;;;;9.87;3.70;;;;;;;15.31;82.37;155293.78;5049781;28;20452;-80
2023/10/10 02:56:01;;;;;;;7.00;3.70;;;;;;;15.32;82.48;155295.09;5067281;28;20441;-80
2023/10/10 02:58:37;;;;;;;5.13;3.60;;;;;;;15.31;82.66;155292.50;5065032;28;20442;-80
2023/10/10 03:01:09;;;;;;;11.63;3.93;;;;;;;15.29;83.11;155288.63;5068384;28;20813;-80
2023/10/10 03:03:40;;;;;;;7.77;4.40;;;;;;;15.29;83.02;155288.63;5066994;28;20465;-80
2023/10/10 03:06:10;;;;;;;5.37;2.97;;;;;;;15.28;82.85;155286.00;5061523;28;21244;-81
2023/10/10 03:08:51;;;;;;;9.20;4.00;;;;;;;15.26;83.18;155280.81;5063201;28;20574;-79
2023/10/10 03:11:35;;;;;;;7.33;3.50;;;;;;;15.21;82.92;155267.81;5048295;28;20429;-80
2023/10/10 03:14:07;;;;;;;7.90;4.47;;;;;;;15.19;83.18;155262.63;5066737;28;20456;-80
2023/10/10 03:16:44;;;;;;;13.50;4.57;;;;;;;15.15;83.33;155252.22;5048413;28;20453;-80
2023/10/10 03:22:20;;;;;;;11.33;4.20;;;;;;;15.06;83.86;155228.84;5049905;28;20477;-80
2023/10/10 03:25:05;;;;;;;8.77;4.20;;;;;;;15.02;84.39;155218.44;5049843;28;20446;-80
2023/10/10 03:27:54;;;;;;;8.23;4.17;;;;;;;15.00;84.65;155214.56;5083637;28;20461;-80
2023/10/10 03:30:30;;;;;;;8.87;3.80;;;;;;;14.99;84.72;155210.63;5049995;28;20441;-80
2023/10/10 03:33:11;;;;;;;8.10;3.53;;;;;;;14.99;84.91;155210.63;5066241;28;20476;-80
2023/10/10 03:35:59;;;;;;;9.57;4.83;;;;;;;14.97;85.33;155205.44;5030573;28;20453;-80
2023/10/10 05:25:52;;;;;;;11.60;4.47;;;;;;;13.91;88.57;154933.97;5058822;28;20494;-79
2023/10/10 05:28:19;;;;;;;8.67;4.00;;;;;;;13.87;88.74;154922.31;5065198;28;20465;-79
2023/10/10 05:30:46;;;;;;;7.80;4.07;;;;;;;13.81;88.54;154906.72;5066235;28;21028;-79
2023/10/10 05:33:14;;;;;;;11.43;4.73;;;;;;;13.79;88.87;154901.53;5058079;28;21054;-79
2023/10/10 05:35:47;;;;;;;8.47;4.50;;;;;;;13.75;89.14;154891.13;5053544;28;20541;-81
2023/10/10 05:38:15;;;;;;;9.73;4.17;;;;;;;13.72;89.35;154883.34;5057193;28;20459;-79
2023/10/10 05:40:43;;;;;;;10.20;4.37;;;;;;;13.76;89.06;154893.75;5058789;28;20473;-80
2023/10/10 05:43:15;;;;;;;9.37;4.10;;;;;;;13.82;88.13;154909.34;5050555;28;20455;-80
2023/10/10 05:45:42;;;;;;;9.53;4.77;;;;;;;13.90;87.74;154931.38;5053918;28;20478;-81
2023/10/10 05:48:08;;;;;;;10.53;5.33;;;;;;;13.94;87.11;154940.47;5054427;28;20450;-80
2023/10/10 05:50:35;;;;;;;12.90;5.73;;;;;;;13.98;86.77;154950.81;5053909;28;20454;-80
2023/10/10 05:53:06;;;;;;;9.30;4.87;;;;;;;14.01;86.35;154958.63;5086203;28;20477;-81
2023/10/10 05:55:33;;;;;;;8.00;3.93;;;;;;;14.02;86.09;154961.25;5051450;28;20825;-81
2023/10/10 05:58:02;;;;;;;10.90;4.10;;;;;;;14.01;85.80;154959.94;5056881;28;20765;-80
2023/10/10 06:00:32;;;;;;;9.97;4.40;;;;;;;14.04;85.95;154967.72;5055497;28;20473;-81
2023/10/10 06:02:59;;;;;;;8.17;4.17;;;;;;;14.07;85.80;154972.91;5055967;28;20534;-81
2023/10/10 06:05:26;;;;;;;7.20;4.10;;;;;;;14.10;85.61;154982.03;5053310;28;20458;-81
2023/10/10 06:07:53;;;;;;;7.63;4.27;;;;;;;14.16;85.61;154997.59;5056562;28;20532;-81
2023/10/10 06:10:28;;;;;;;11.97;4.63;;;;;;;14.21;85.05;155010.59;5056845;28;20467;-81
2023/10/10 06:12:57;;;;;;;8.57;5.30;;;;;;;14.25;85.04;155019.66;5054415;28;20445;-80
2023/10/10 06:15:23;;;;;;;13.50;3.90;;;;;;;14.29;84.75;155031.38;5054622;28;20459;-81
2023/10/10 06:17:51;;;;;;;10.20;4.47;;;;;;;14.36;85.10;155049.59;5059727;28;20476;-81
2023/10/10 06:20:21;;;;;;;8.90;4.70;;;;;;;14.46;84.57;155075.53;5062615;28;20467;-81
2023/10/10 06:22:48;;;;;;;9.20;5.60;;;;;;;14.56;84.04;155100.25;5061390;28;20790;-81
2023/10/10 06:25:17;;;;;;;8.87;3.90;;;;;;;14.69;83.64;155132.72;5040943;28;20933;-81
2023/10/10 06:27:45;;;;;;;11.50;4.17;;;;;;;14.82;83.39;155167.78;5038326;28;20824;-81
2023/10/10 06:30:17;;;;;;;6.07;3.63;;;;;;;14.97;83.07;155205.44;5057339;28;20479;-81
2023/10/10 06:32:46;;;;;;;8.70;4.27;;;;;;;15.13;82.85;155247.03;5053918;28;20541;-80
2023/10/10 06:35:26;;;;;;;8.90;3.93;;;;;;;15.28;81.67;155286.00;5055267;28;20454;-80
2023/10/10 06:37:53;;;;;;;8.20;4.00;;;;;;;15.38;81.38;155310.72;5053942;28;20443;-81
2023/10/10 06:40:25;;;;;;;9.00;4.23;;;;;;;15.48;80.45;155338.06;5055495;28;21232;-80
2023/10/10 06:42:56;;;;;;;8.63;4.10;;;;;;;15.69;79.64;155392.66;5038186;28;21163;-81
2023/10/10 06:45:24;;;;;;;8.10;4.60;;;;;;;15.84;78.44;155430.31;5053732;28;20482;-80
2023/10/10 06:47:52;;;;;;;7.73;4.70;;;;;;;16.02;77.44;155475.88;5050217;28;20550;-80
2023/10/10 06:50:21;;;;;;;6.70;4.40;;;;;;;16.16;76.36;155512.25;5054361;28;20560;-81
2023/10/10 06:52:52;;;;;;;7.97;4.20;;;;;;;16.31;75.75;155551.25;5054004;28;20447;-81
2023/10/10 06:55:22;;;;;;;9.40;3.97;;;;;;;16.46;75.23;155590.28;5056492;28;20453;-82
2023/10/10 06:57:58;;;;;;;12.73;4.50;;;;;;;16.60;74.72;155626.72;5054702;28;20441;-82
2023/10/10 07:00:32;;;;;;;8.37;4.10;;;;;;;16.72;74.34;155656.66;5051398;28;20524;-81
2023/10/10 07:02:59;;;;;;;8.83;4.60;;;;;;;16.83;74.10;155686.59;5038948;28;20482;-80
2023/10/10 07:05:27;;;;;;;8.90;4.60;;;;;;;16.83;74.12;155685.31;5051255;28;20463;-81
2023/10/10 07:07:58;;;;;;;7.00;4.50;;;;;;;16.79;74.01;155676.19;5053067;28;20455;-81
2023/10/10 07:10:35;;;;;;;7.60;4.60;;;;;;;16.76;74.31;155668.38;5053199;28;20528;-82
2023/10/10 07:13:10;;;;;;;10.63;4.20;;;;;;;16.77;74.60;155670.97;5055593;28;20827;-81
2023/10/10 07:15:37;;;;;;;9.57;4.53;;;;;;;16.95;74.96;155716.50;5034448;28;20566;-80
2023/10/10 07:18:13;;;;;;;11.20;4.70;;;;;;;17.16;74.56;155769.84;5057480;28;20462;-82
2023/10/10 07:23:25;;;;;;;9.10;4.80;;;;;;;17.88;72.81;155956.03;5053185;28;20454;-82
2023/10/10 07:25:59;;;;;;;9.40;5.00;;;;;;;18.20;72.12;156039.38;5052525;28;20453;-82
2023/10/10 07:28:27;;;;;;;13.33;8.20;;;;;;;18.48;70.68;156112.38;5055449;28;20605;-82
2023/10/10 07:30:54;;;;;;;9.43;5.73;;;;;;;18.67;69.47;156161.88;5055055;28;20482;-81
2023/10/10 07:33:23;;;;;;;11.87;4.70;;;;;;;18.80;69.46;156195.75;5054141;28;20449;-81
2023/10/10 07:35:53;;;;;;;11.80;5.40;;;;;;;18.93;68.57;156228.31;5053761;28;21004;-81
2023/10/10 07:38:23;;;;;;;10.27;4.90;;;;;;;19.18;68.15;156293.50;5060891;28;20960;-82
2023/10/10 07:40:52;;;;;;;12.13;5.03;;;;;;;19.46;66.46;156365.19;5052257;28;20926;-81
2023/10/10 07:43:18;;;;;;;10.13;4.90;;;;;;;19.76;66.35;156443.44;5069766;28;20515;-81
2023/10/10 07:45:51;;;;;;;11.53;4.63;;;;;;;19.94;65.00;156490.38;5054218;28;20454;-81
2023/10/10 07:51:07;;;;;;;8.77;5.50;;;;;;;20.19;64.03;156554.28;5053143;28;20523;-81
2023/10/10 07:53:42;;;;;;;11.20;5.17;;;;;;;20.18;63.92;156550.34;5054233;28;20928;-81
2023/10/10 07:56:09;;;;;;;10.87;5.00;;;;;;;20.25;63.53;156570.00;5052198;28;21007;-82
2023/10/10 07:58:43;;;;;;;10.47;5.17;;;;;;;20.26;62.85;156572.56;5054528;28;20468;-81
2023/10/10 08:01:16;;;;;;;12.13;5.43;;;;;;;20.07;63.69;156521.69;5050998;28;20880;-82
2023/10/10 08:03:44;;;;;;;9.87;5.43;;;;;;;19.83;64.88;156461.66;5039468;28;20487;-82
2023/10/10 08:06:11;;;;;;;10.40;5.33;;;;;;;19.65;65.54;156413.44;5085262;28;20489;-80
2023/10/10 08:08:39;;;;;;;10.03;6.93;;;;;;;19.51;66.51;156376.97;5053606;28;21061;-81
2023/10/10 08:11:12;;;;;;;11.30;5.63;;;;;;;19.38;66.95;156344.34;5052017;28;20508;-81
2023/10/10 08:13:40;;;;;;;11.53;5.80;;;;;;;19.27;68.48;156315.66;5052451;28;20473;-81
2023/10/10 08:16:06;;;;;;;13.73;5.63;;;;;;;19.14;68.25;156283.03;5052879;28;20457;-80
2023/10/10 08:18:52;;;;;;;8.37;5.20;;;;;;;19.08;68.52;156266.13;5054846;28;20451;-81
2023/10/10 08:21:22;;;;;;;11.53;5.40;;;;;;;19.03;68.89;156254.41;5084117;28;20952;-80
2023/10/10 08:23:56;;;;;;;11.80;5.80;;;;;;;19.01;68.90;156249.16;5052102;28;20484;-82
2023/10/10 08:26:26;;;;;;;11.77;5.23;;;;;;;19.06;69.39;156260.91;5053110;28;21753;-82
2023/10/10 08:28:54;;;;;;;10.00;5.60;;;;;;;19.09;68.68;156270.00;5056208;28;21051;-81
2023/10/10 08:31:22;;;;;;;8.63;5.17;;;;;;;19.13;68.39;156280.47;5039978;28;20915;-81
2023/10/10 08:33:51;;;;;;;11.50;5.13;;;;;;;19.13;68.01;156280.47;5054084;28;20450;-81
2023/10/10 08:36:25;;;;;;;11.83;5.20;;;;;;;19.16;67.94;156286.97;5055223;28;20949;-82
2023/10/10 08:38:52;;;;;;;7.53;4.87;;;;;;;19.24;66.43;156309.13;5041414;28;21208;-81
2023/10/10 08:41:23;;;;;;;14.53;5.70;;;;;;;19.28;66.69;156318.22;5032052;28;20837;-81
2023/10/10 08:43:57;;;;;;;10.90;4.73;;;;;;;19.36;66.44;156340.41;5024234;28;20451;-81
2023/10/10 08:46:26;;;;;;;9.53;4.73;;;;;;;19.47;66.39;156366.50;5045391;28;20487;-81
2023/10/10 08:48:55;;;;;;;18.13;5.90;;;;;;;19.54;66.32;156384.78;5020127;28;20453;-81
2023/10/10 08:51:21;;;;;;;9.17;4.33;;;;;;;19.59;66.32;156399.09;5022998;28;20452;-81
2023/10/10 08:53:50;;;;;;;10.17;5.00;;;;;;;19.60;66.01;156400.41;5015572;28;20459;-81
2023/10/10 08:56:17;;;;;;;12.30;5.30;;;;;;;19.56;67.17;156390.00;5014765;28;20856;-81
2023/10/10 08:58:44;;;;;;;8.67;5.00;;;;;;;19.56;66.60;156390.00;5015328;28;20487;-81
2023/10/10 09:01:11;;;;;;;8.83;4.53;;;;;;;19.55;67.27;156388.69;5015932;28;20845;-82
2023/10/10 09:03:44;;;;;;;13.53;5.13;;;;;;;19.58;67.12;156395.19;5017509;28;20464;-82
2023/10/10 09:06:17;;;;;;;6.93;4.57;;;;;;;19.58;66.70;156396.50;5013415;28;20453;-81
2023/10/10 09:08:44;;;;;;;9.40;4.87;;;;;;;19.67;67.06;156418.69;5015314;28;20815;-81
2023/10/10 09:11:12;;;;;;;7.33;4.30;;;;;;;19.71;66.31;156429.09;5016927;28;20459;-81
2023/10/10 09:13:51;;;;;;;9.37;5.30;;;;;;;19.75;66.42;156439.56;5019377;28;20942;-81
2023/10/10 09:16:19;;;;;;;15.63;5.83;;;;;;;19.77;66.49;156444.75;5016038;28;20444;-81
2023/10/10 09:18:47;;;;;;;12.07;4.53;;;;;;;19.78;66.17;156447.31;5001451;28;20538;-81
2023/10/10 09:21:18;;;;;;;13.37;5.10;;;;;;;19.80;66.34;156452.59;5012294;28;20479;-81
2023/10/10 09:24:07;;;;;;;12.80;5.10;;;;;;;19.83;66.23;156460.41;5031774;28;20451;-81
2023/10/10 09:26:36;;;;;;;12.00;4.87;;;;;;;19.85;67.73;156465.63;5014484;28;20543;-81
2023/10/10 09:29:15;;;;;;;9.93;5.40;;;;;;;19.87;67.84;156470.81;5018626;28;20474;-81
2023/10/10 09:31:45;;;;;;;13.20;5.67;;;;;;;19.84;67.40;156463.00;5048534;28;20450;-81
2023/10/10 09:34:18;;;;;;;10.90;5.17;;;;;;;19.87;68.10;156472.13;5002772;28;21075;-81
2023/10/10 09:36:51;;;;;;;16.57;5.60;;;;;;;19.89;69.72;156476.03;5007390;28;20479;-81
2023/10/10 09:39:35;;;;;;;21.57;6.40;;;;;;;19.87;70.27;156470.81;5049445;28;20477;-81
2023/10/10 09:42:06;;;;;;;15.63;5.23;;;;;;;19.86;68.61;156468.19;5053930;28;20485;-81
2023/10/10 09:44:53;;;;;;;11.90;5.63;;;;;;;19.89;69.34;156477.34;5053254;28;20452;-81
2023/10/10 09:52:53;;;;;;;14.77;6.37;;;;;;;20.02;65.59;156509.91;5058303;28;20450;-81
2023/10/10 09:58:16;;;;;;;10.63;4.70;;;;;;;20.03;65.37;156513.88;5089358;28;20455;-81
2023/10/10 10:00:46;;;;;;;12.83;4.53;;;;;;;20.12;63.79;156536.00;5052880;28;20438;-80
2023/10/10 10:06:36;;;;;;;9.27;4.90;;;;;;;20.17;64.49;156549.06;5088206;28;20811;-82
2023/10/10 10:09:17;;;;;;;10.80;5.20;;;;;;;20.23;63.33;156563.38;5054396;28;20435;-80
2023/10/10 10:11:56;;;;;;;12.93;5.63;;;;;;;20.28;61.72;156577.78;5067988;28;21074;-81
2023/10/10 10:14:34;;;;;;;14.93;6.33;;;;;;;20.32;59.79;156588.25;5054139;28;20467;-81
2023/10/10 10:17:12;;;;;;;8.77;4.60;;;;;;;20.41;58.62;156610.44;5055336;28;20454;-81
2023/10/10 10:19:45;;;;;;;10.07;4.87;;;;;;;20.50;60.03;156633.88;5055182;28;20451;-81
2023/10/10 10:22:17;;;;;;;10.50;4.70;;;;;;;20.51;59.30;156637.81;5048860;28;20482;-81
2023/10/10 10:25:20;;;;;;;13.10;4.70;;;;;;;20.54;59.59;156645.59;5041087;28;20439;-81
2023/10/10 10:27:49;;;;;;;9.40;4.47;;;;;;;20.57;60.26;156653.44;5042884;28;20460;-81
2023/10/10 10:33:15;;;;;;;10.00;4.53;;;;;;;20.64;60.45;156671.72;5110886;27;20641;-80
2023/10/10 10:36:06;;;;;;;14.37;4.80;;;;;;;20.67;60.73;156676.94;5111464;27;20442;-81
2023/10/10 10:38:34;;;;;;;8.93;4.70;;;;;;;20.74;59.91;156696.50;5110933;28;20815;-81
2023/10/10 10:41:07;;;;;;;11.17;4.90;;;;;;;20.76;56.30;156701.72;5109223;28;20509;-80
2023/10/10 10:43:34;;;;;;;15.97;4.70;;;;;;;20.85;56.29;156723.91;5093871;28;20452;-80
2023/10/10 10:46:12;;;;;;;11.13;5.23;;;;;;;20.89;56.79;156735.63;5074001;28;20572;-82
2023/10/10 10:48:41;;;;;;;7.27;4.00;;;;;;;20.96;55.12;156752.63;5111152;27;20459;-82
2023/10/10 10:51:23;;;;;;;10.67;5.13;;;;;;;21.02;54.72;156769.56;5110081;27;20467;-81
2023/10/10 10:53:51;;;;;;;12.57;5.20;;;;;;;21.05;54.35;156776.06;5111048;28;20478;-81
2023/10/10 10:59:20;;;;;;;7.90;4.07;;;;;;;21.16;54.86;156804.84;5107651;27;20630;-81
2023/10/10 11:01:51;;;;;;;10.30;4.53;;;;;;;21.21;55.45;156817.91;5088788;28;20445;-80
2023/10/10 11:04:26;;;;;;;18.27;5.00;;;;;;;21.25;54.98;156828.34;5088549;28;20487;-81
2023/10/10 11:06:59;;;;;;;16.30;5.00;;;;;;;21.23;54.10;156823.16;5074237;28;20481;-81
2023/10/10 11:09:29;;;;;;;10.70;4.13;;;;;;;21.26;53.17;156830.94;5091109;28;20437;-81
2023/10/10 11:12:02;;;;;;;9.03;4.77;;;;;;;21.29;53.91;156838.78;5088088;28;20499;-82
2023/10/10 11:14:31;;;;;;;11.57;4.77;;;;;;;21.36;54.15;156857.09;5094331;28;20502;-80
2023/10/10 11:16:58;;;;;;;15.07;4.90;;;;;;;21.40;53.34;156866.19;5072924;28;20535;-81
2023/10/10 11:19:38;;;;;;;9.50;5.07;;;;;;;21.48;53.09;156887.06;5092593;28;20468;-82
2023/10/10 11:22:12;;;;;;;10.37;4.90;;;;;;;21.53;50.38;156901.44;5072270;28;20444;-81
2023/10/10 11:24:39;;;;;;;10.30;4.10;;;;;;;21.60;50.70;156919.75;5079962;28;20488;-82
2023/10/10 11:27:14;;;;;;;10.57;4.00;;;;;;;21.64;51.01;156930.16;5073944;28;20982;-80
2023/10/10 11:29:44;;;;;;;9.93;5.17;;;;;;;21.72;51.99;156949.75;5086726;28;20444;-81
2023/10/10 11:32:13;;;;;;;14.27;4.80;;;;;;;21.87;50.98;156988.94;5084249;28;20531;-80
2023/10/10 11:34:44;;;;;;;12.03;5.10;;;;;;;21.89;51.24;156992.88;5074707;28;20449;-81
2023/10/10 11:37:12;;;;;;;9.87;4.43;;;;;;;21.85;52.32;156985.00;5088609;28;20985;-82
2023/10/10 11:39:46;;;;;;;10.97;4.83;;;;;;;21.79;52.00;156968.00;5073886;28;20556;-82
2023/10/10 11:42:23;;;;;;;11.30;5.47;;;;;;;21.78;52.98;156965.41;5090664;28;20453;-82
2023/10/10 11:44:54;;;;;;;11.73;4.10;;;;;;;21.80;53.32;156971.94;5094925;28;20874;-82
2023/10/10 11:47:24;;;;;;;11.97;4.70;;;;;;;22.05;51.69;157036.00;5060282;28;20495;-80
2023/10/10 11:50:00;;;;;;;9.70;5.07;;;;;;;22.07;50.61;157039.88;5090587;28;21009;-80
2023/10/10 11:52:28;;;;;;;9.67;5.20;;;;;;;22.13;52.82;157055.56;5088028;28;20441;-81
2023/10/10 11:54:58;;;;;;;8.73;4.93;;;;;;;22.10;52.21;157047.72;5073903;28;22455;-80
2023/10/10 11:57:29;;;;;;;13.40;5.00;;;;;;;22.12;53.08;157052.94;5090190;28;20481;-80
2023/10/10 11:59:59;;;;;;;7.40;4.50;;;;;;;22.19;52.20;157071.22;5088894;28;20449;-80
2023/10/10 12:02:39;;;;;;;8.43;4.20;;;;;;;22.22;52.17;157080.38;5082467;28;20832;-81
2023/10/10 12:05:35;;;;;;;10.50;4.30;;;;;;;22.29;51.43;157097.38;5080262;28;20986;-81
2023/10/10 12:07:58;;;;;;;8.17;4.37;;;;;;;22.29;50.10;157097.38;5055283;28;20455;-81
2023/10/10 12:10:30;;;;;;;9.27;4.80;;;;;;;22.25;50.01;157088.22;5060624;28;20555;-81
2023/10/10 12:12:56;;;;;;;14.57;5.30;;;;;;;22.27;51.58;157093.44;5056855;28;20552;-82
2023/10/10 12:15:24;;;;;;;11.07;5.17;;;;;;;22.22;53.17;157079.06;5076933;28;20453;-82
2023/10/10 12:17:52;;;;;;;11.77;4.67;;;;;;;22.17;53.65;157066.00;5041006;28;20499;-82
2023/10/10 12:20:19;;;;;;;14.33;4.80;;;;;;;22.13;53.81;157055.56;5078668;28;20539;-81
2023/10/10 12:22:45;;;;;;;8.37;4.70;;;;;;;22.13;54.45;157055.56;5076536;28;20453;-81
2023/10/10 12:25:14;;;;;;;14.13;4.70;;;;;;;22.12;53.43;157052.94;5078776;28;20975;-82
2023/10/10 12:27:46;;;;;;;11.87;5.10;;;;;;;22.23;53.82;157081.69;5066952;28;20454;-81
2023/10/10 12:30:18;;;;;;;7.70;4.47;;;;;;;22.26;53.89;157089.53;5073791;28;20445;-82
2023/10/10 12:32:49;;;;;;;13.10;5.40;;;;;;;22.28;53.10;157094.75;5078052;28;20461;-81
2023/10/10 12:35:15;;;;;;;12.10;5.00;;;;;;;22.30;54.05;157099.94;5074889;28;20445;-81
2023/10/10 12:37:44;;;;;;;11.70;4.87;;;;;;;22.33;53.79;157107.78;5074107;28;20488;-81
2023/10/10 12:40:11;;;;;;;9.17;4.90;;;;;;;22.37;54.46;157119.53;5077807;28;20457;-81
2023/10/10 12:42:38;;;;;;;14.30;4.97;;;;;;;22.44;53.02;157137.84;5074745;28;20559;-82
2023/10/10 12:45:06;;;;;;;13.03;4.90;;;;;;;22.52;52.46;157157.44;5076254;28;20450;-81
2023/10/10 12:47:33;;;;;;;9.70;4.30;;;;;;;22.52;52.33;157157.44;5079472;28;20527;-81
2023/10/10 12:50:01;;;;;;;11.83;4.40;;;;;;;22.55;51.24;157163.97;5060229;28;20461;-82
2023/10/10 12:52:34;;;;;;;9.03;4.53;;;;;;;22.54;51.88;157162.66;5075015;28;20855;-81
2023/10/10 12:55:09;;;;;;;10.70;5.07;;;;;;;22.53;50.95;157160.03;5079263;28;20438;-81
2023/10/10 12:57:36;;;;;;;10.23;4.80;;;;;;;22.49;52.20;157148.28;5064794;28;20470;-81
2023/10/10 13:02:43;;;;;;;8.60;4.53;;;;;;;22.52;52.25;157157.44;5048542;28;20459;-81
2023/10/10 13:05:12;;;;;;;8.30;4.70;;;;;;;22.57;50.51;157170.50;5037564;28;20467;-80
2023/10/10 13:07:41;;;;;;;8.90;5.30;;;;;;;22.56;50.63;157167.88;5032945;28;20459;-80
2023/10/10 13:10:10;;;;;;;9.60;4.60;;;;;;;22.58;51.73;157171.81;5035234;28;20915;-80
2023/10/10 13:12:36;;;;;;;15.47;6.20;;;;;;;22.57;52.39;157170.50;5031888;28;20928;-81
2023/10/10 13:15:17;;;;;;;12.53;5.33;;;;;;;22.63;53.13;157186.25;5032949;28;20463;-81
2023/10/10 13:17:53;;;;;;;11.93;4.97;;;;;;;22.65;53.26;157191.47;5034129;28;20451;-81
2023/10/10 13:20:21;;;;;;;11.63;4.90;;;;;;;22.66;53.39;157194.09;5017844;28;20486;-81
2023/10/10 13:22:50;;;;;;;12.30;4.97;;;;;;;22.70;54.17;157203.19;5034692;28;20458;-81
2023/10/10 13:25:18;;;;;;;11.93;4.93;;;;;;;22.70;53.54;157204.50;5039006;28;20542;-80
2023/10/10 13:27:47;;;;;;;9.43;4.50;;;;;;;22.64;53.07;157187.50;5037985;28;20461;-81
2023/10/10 13:30:14;;;;;;;8.40;5.40;;;;;;;22.61;53.36;157180.94;5037819;28;20960;-81
2023/10/10 13:32:41;;;;;;;8.40;5.10;;;;;;;22.64;54.29;157187.50;5054916;28;20485;-81
2023/10/10 13:35:09;;;;;;;9.27;4.67;;;;;;;22.61;54.43;157180.94;5038034;28;20593;-81
2023/10/10 13:37:41;;;;;;;11.33;4.13;;;;;;;22.63;54.39;157186.25;5069667;28;21524;-81
2023/10/10 13:40:08;;;;;;;11.37;5.37;;;;;;;22.65;55.02;157191.47;5048398;28;20795;-81
2023/10/10 13:42:40;;;;;;;15.03;5.03;;;;;;;22.70;54.82;157203.19;5033763;28;20478;-81
2023/10/10 13:45:10;;;;;;;11.30;4.93;;;;;;;22.70;54.62;157204.50;5033979;28;21142;-81
2023/10/10 13:47:39;;;;;;;12.43;5.73;;;;;;;22.81;54.10;157231.94;5026217;28;20462;-81
2023/10/10 13:50:28;;;;;;;10.70;5.03;;;;;;;22.77;54.71;157222.78;5067238;28;20480;-81
2023/10/10 13:52:56;;;;;;;9.93;4.90;;;;;;;22.72;54.32;157209.72;5036495;28;20454;-81
2023/10/10 13:55:23;;;;;;;9.83;5.37;;;;;;;22.72;54.35;157208.41;5032893;28;20454;-81
2023/10/10 13:57:50;;;;;;;10.27;6.13;;;;;;;22.73;53.55;157212.34;5033339;28;20497;-81
2023/10/10 14:00:29;;;;;;;10.63;4.50;;;;;;;22.71;52.97;157205.84;5049841;28;20509;-81